Time;durP1;ratioP1;P1;durP2;ratioP2;P2;SDS_P1;SDS_P2;PMS_P1;PMS_P2;Temp;Humidity;BMP_temperature;BMP_pressure;BME280_temperature;BME280_humidity;BME280_pressure;Samples;Min_cycle;Max_cycle;Signal;HPM_P1;HPM_P2
2022/11/15 00:00:55;;;;;;;7.35;1.88;;;;;;;15.01;100.00;97016.44;6043437;23;20467;-93
2022/11/15 00:03:23;;;;;;;6.88;1.67;;;;;;;15.46;100.00;97004.28;6067352;23;20003;-94
2022/11/15 00:05:49;;;;;;;8.32;2.00;;;;;;;15.20;100.00;97013.66;6036327;23;20059;-93
2022/11/15 00:08:14;;;;;;;9.70;2.42;;;;;;;15.43;100.00;97006.25;6012761;23;20026;-94
2022/11/15 00:10:42;;;;;;;7.50;1.95;;;;;;;14.89;100.00;97002.22;6039717;23;20035;-95
2022/11/15 00:13:12;;;;;;;15.48;2.85;;;;;;;15.36;100.00;96990.84;6012325;23;20027;-93
2022/11/15 00:15:39;;;;;;;8.73;2.50;;;;;;;15.93;100.00;96989.34;6013327;23;20086;-94
2022/11/15 00:18:13;;;;;;;9.68;2.40;;;;;;;15.33;100.00;96993.63;6038904;23;20011;-93
2022/11/15 00:20:39;;;;;;;10.57;2.22;;;;;;;15.12;100.00;96993.06;6014395;23;20044;-94
2022/11/15 00:23:05;;;;;;;7.50;2.38;;;;;;;14.85;100.00;96992.81;6013380;23;20433;-94
2022/11/15 00:25:31;;;;;;;9.18;2.30;;;;;;;15.09;100.00;96984.50;6013878;23;20007;-93
2022/11/15 00:27:58;;;;;;;9.35;2.42;;;;;;;15.34;100.00;96981.34;6013172;23;20478;-92
2022/11/15 00:30:24;;;;;;;11.05;2.72;;;;;;;15.49;100.00;96977.84;6038964;23;20094;-96
2022/11/15 00:32:50;;;;;;;8.32;2.60;;;;;;;15.39;100.00;96973.19;6037693;23;20021;-92
2022/11/15 00:35:16;;;;;;;11.70;2.35;;;;;;;14.60;100.00;96973.13;6012605;23;20039;-93
2022/11/15 00:37:42;;;;;;;9.63;2.65;;;;;;;15.01;100.00;96958.69;6013751;23;20040;-93
2022/11/15 00:40:09;;;;;;;9.88;2.25;;;;;;;14.70;100.00;96956.88;6014927;23;20026;-93
2022/11/15 00:42:35;;;;;;;8.75;2.38;;;;;;;14.78;100.00;96952.06;6015032;23;20094;-94
2022/11/15 00:45:01;;;;;;;7.65;2.20;;;;;;;13.95;100.00;96939.81;6015622;23;20022;-94
2022/11/15 00:47:26;;;;;;;9.52;2.25;;;;;;;14.35;100.00;96942.13;6017261;23;20011;-94
2022/11/15 00:49:52;;;;;;;8.95;2.25;;;;;;;14.68;100.00;96926.34;6027967;23;20063;-93
2022/11/15 00:52:17;;;;;;;8.40;2.20;;;;;;;15.10;100.00;96928.44;6031813;23;20070;-95
2022/11/15 00:54:43;;;;;;;11.05;2.47;;;;;;;14.85;100.00;96916.72;6020090;23;20004;-93
2022/11/15 00:57:08;;;;;;;9.95;2.40;;;;;;;15.00;100.00;96907.09;6018839;23;20003;-93
2022/11/15 00:59:34;;;;;;;8.27;2.20;;;;;;;14.83;100.00;96905.44;6018217;23;20012;-94
2022/11/15 01:01:59;;;;;;;8.38;1.80;;;;;;;14.56;100.00;96907.75;6028718;23;20023;-94
2022/11/15 01:04:24;;;;;;;10.43;2.17;;;;;;;15.11;100.00;96906.50;6057669;23;20223;-94
2022/11/15 01:06:50;;;;;;;11.35;2.00;;;;;;;14.71;100.00;96893.00;6023938;23;20024;-92
2022/11/15 01:09:15;;;;;;;10.10;2.08;;;;;;;14.82;100.00;96888.84;6022522;23;20019;-92
2022/11/15 01:11:41;;;;;;;9.57;1.60;;;;;;;15.18;100.00;96878.94;6028618;23;19991;-91
2022/11/15 01:14:06;;;;;;;9.50;1.55;;;;;;;14.87;100.00;96883.34;6052871;23;20015;-95
2022/11/15 01:16:33;;;;;;;10.20;2.10;;;;;;;15.45;100.00;96888.78;6030290;23;20018;-93
2022/11/15 01:18:58;;;;;;;8.45;1.80;;;;;;;14.96;100.00;96890.69;6028596;23;20035;-92
2022/11/15 01:21:24;;;;;;;11.48;1.70;;;;;;;14.85;100.00;96883.44;6027499;23;20098;-93
2022/11/15 01:23:54;;;;;;;8.93;1.70;;;;;;;15.16;100.00;96889.53;6027221;23;20019;-91
2022/11/15 01:26:19;;;;;;;9.40;1.85;;;;;;;14.76;100.00;96885.72;6028194;23;20027;-92
2022/11/15 01:28:45;;;;;;;10.88;1.92;;;;;;;14.69;100.00;96874.72;6023600;23;20346;-91
2022/11/15 01:31:16;;;;;;;8.65;1.55;;;;;;;14.77;100.00;96877.75;6028396;23;20013;-93
2022/11/15 01:33:42;;;;;;;8.80;1.40;;;;;;;15.36;100.00;96864.75;6030138;23;20019;-91
2022/11/15 01:36:11;;;;;;;8.85;1.50;;;;;;;15.16;100.00;96870.34;6031490;23;20015;-92
2022/11/15 01:38:37;;;;;;;10.32;1.60;;;;;;;14.95;100.00;96865.38;6051142;23;20003;-95
2022/11/15 01:41:02;;;;;;;10.80;2.13;;;;;;;15.74;100.00;96852.03;6054745;23;20619;-92
2022/11/15 01:43:36;;;;;;;8.55;1.60;;;;;;;15.15;100.00;96852.88;6030023;23;20021;-94
2022/11/15 01:46:16;;;;;;;;;;;;;;;15.24;100.00;96846.22;6027577;23;20065;-94
2022/11/15 01:48:42;;;;;;;15.13;1.63;;;;;;;15.15;100.00;96858.13;6017019;23;20233;-95
2022/11/15 01:51:12;;;;;;;10.90;1.60;;;;;;;15.38;100.00;96838.41;6015517;23;20007;-95
2022/11/15 01:53:43;;;;;;;7.80;1.42;;;;;;;15.76;100.00;96837.03;6038288;23;20007;-95
2022/11/15 01:56:12;;;;;;;14.15;1.70;;;;;;;15.42;100.00;96837.28;6013455;23;20011;-94
2022/11/15 01:58:41;;;;;;;10.02;1.90;;;;;;;14.81;100.00;96834.66;6012893;23;20094;-94
2022/11/15 02:01:07;;;;;;;12.15;1.48;;;;;;;14.71;100.00;96833.50;6012506;23;20050;-94
2022/11/15 02:03:50;;;;;;;9.40;1.40;;;;;;;14.78;100.00;96824.34;6037704;23;20003;-94
2022/11/15 02:06:15;;;;;;;14.48;1.92;;;;;;;14.67;100.00;96822.34;6012798;23;20046;-94
2022/11/15 02:08:42;;;;;;;6.18;1.30;;;;;;;14.89;100.00;96817.63;6013816;23;20423;-93
2022/11/15 02:11:09;;;;;;;7.25;1.40;;;;;;;15.14;100.00;96819.66;6014843;23;20038;-91
2022/11/15 02:13:36;;;;;;;7.38;1.20;;;;;;;15.24;100.00;96804.22;6042476;23;20015;-94
2022/11/15 02:16:46;;;;;;;8.43;1.40;;;;;;;14.56;100.00;96816.81;6038614;23;20021;-94
2022/11/15 02:19:32;;;;;;;11.88;1.60;;;;;;;14.83;100.00;96797.84;5923107;24;20009;-93
2022/11/15 02:22:34;;;;;;;9.07;1.33;;;;;;;14.51;100.00;96797.88;5876019;24;20020;-93
2022/11/15 02:25:23;;;;;;;9.18;1.27;;;;;;;14.90;100.00;96791.28;5901257;24;20021;-93
2022/11/15 02:28:03;;;;;;;12.30;1.65;;;;;;;14.25;100.00;96789.69;5881113;24;20017;-92
2022/11/15 02:30:33;;;;;;;8.00;1.25;;;;;;;15.05;100.00;96776.44;5923083;24;20531;-92
2022/11/15 02:33:03;;;;;;;9.40;1.75;;;;;;;15.07;100.00;96779.81;5898088;24;20048;-94
2022/11/15 02:35:45;;;;;;;10.82;1.70;;;;;;;15.86;100.00;96768.03;5900996;24;20020;-93
2022/11/15 02:38:29;;;;;;;8.20;1.45;;;;;;;15.05;100.00;96749.34;5901002;24;20005;-94
2022/11/15 02:41:04;;;;;;;11.02;1.30;;;;;;;14.50;100.00;96764.69;5922413;24;20049;-92
2022/11/15 02:43:56;;;;;;;6.80;1.20;;;;;;;15.12;100.00;96748.03;5922280;24;20016;-92
2022/11/15 02:49:32;;;;;;;10.75;1.30;;;;;;;15.02;100.00;96730.19;5922034;24;20133;-94
2022/11/15 02:51:58;;;;;;;8.43;1.15;;;;;;;19.29;100.00;96696.06;5904255;23;20012;-93
2022/11/15 02:54:26;;;;;;;11.98;1.45;;;;;;;14.65;100.00;96724.50;6011357;23;20071;-94
2022/11/15 02:57:06;;;;;;;11.32;1.67;;;;;;;14.21;100.00;96733.13;6012933;23;20007;-94
2022/11/15 02:59:53;;;;;;;8.55;1.30;;;;;;;14.69;100.00;96727.78;6010552;23;20018;-93
2022/11/15 03:02:49;;;;;;;8.35;1.35;;;;;;;14.43;100.00;96731.88;6025844;23;21146;-93
2022/11/15 03:05:19;;;;;;;10.85;1.67;;;;;;;14.69;100.00;96714.66;6066877;23;20028;-94
2022/11/15 03:07:58;;;;;;;9.00;1.30;;;;;;;14.78;100.00;96708.03;6068068;23;20023;-94
2022/11/15 03:10:42;;;;;;;11.85;1.55;;;;;;;15.11;100.00;96696.47;6070038;23;20337;-95
2022/11/15 03:13:33;;;;;;;8.40;1.30;;;;;;;14.93;100.00;96685.28;6069221;23;20014;-93
2022/11/15 03:16:08;;;;;;;13.68;1.65;;;;;;;14.22;100.00;96681.50;6096033;23;20061;-96
2022/11/15 03:18:37;;;;;;;8.35;2.65;;;;;;;14.90;100.00;96681.06;6068589;23;20007;-94
2022/11/15 03:21:07;;;;;;;8.80;1.55;;;;;;;14.86;100.00;96671.69;6068307;23;20006;-93
2022/11/15 03:23:34;;;;;;;12.82;1.45;;;;;;;14.77;100.00;96670.47;6092869;23;20022;-93
2022/11/15 03:26:03;;;;;;;7.38;1.27;;;;;;;14.47;100.00;96667.84;6094515;23;20010;-93
2022/11/15 03:28:36;;;;;;;9.95;1.40;;;;;;;14.31;100.00;96668.72;6091995;23;20065;-94
2022/11/15 03:31:46;;;;;;;7.70;1.60;;;;;;;14.85;100.00;96654.28;6070018;23;20058;-93
2022/11/15 03:33:57;;;;;;;10.23;1.30;;;;;;;14.82;100.00;96643.94;6094731;23;20049;-93
2022/11/15 03:36:24;;;;;;;9.70;1.50;;;;;;;14.97;100.00;96634.31;6094792;23;20368;-94
2022/11/15 03:38:57;;;;;;;11.15;1.52;;;;;;;14.90;100.00;96627.75;6096178;23;20459;-93
2022/11/15 03:41:29;;;;;;;7.55;0.95;;;;;;;14.68;100.00;96632.50;6072511;23;20321;-96
2022/11/15 03:44:36;;;;;;;12.80;1.75;;;;;;;14.70;100.00;96631.53;6079620;23;20018;-94
2022/11/15 03:47:11;;;;;;;10.25;1.50;;;;;;;14.80;100.00;96630.09;6066332;23;20022;-94
2022/11/15 03:49:41;;;;;;;8.15;1.35;;;;;;;14.84;100.00;96627.16;6083013;23;20033;-94
2022/11/15 03:52:07;;;;;;;10.23;1.30;;;;;;;15.10;100.00;96626.50;6073919;23;20025;-95
2022/11/15 03:54:32;;;;;;;10.60;1.80;;;;;;;14.85;100.00;96622.78;6097694;23;20019;-95
2022/11/15 03:56:58;;;;;;;11.20;1.50;;;;;;;15.73;100.00;96629.59;6072203;23;20032;-94
2022/11/15 03:59:23;;;;;;;10.77;1.70;;;;;;;15.19;100.00;96633.81;6087128;23;19994;-94
2022/11/15 04:01:49;;;;;;;14.32;1.70;;;;;;;16.49;100.00;96625.53;6116993;23;20002;-93
2022/11/15 04:04:22;;;;;;;10.50;1.60;;;;;;;23.03;100.00;96597.97;6088224;23;20101;-95
2022/11/15 04:06:47;;;;;;;9.40;1.50;;;;;;;15.24;100.00;96629.16;6100888;23;20333;-95
2022/11/15 04:09:12;;;;;;;7.80;1.40;;;;;;;15.10;100.00;96621.25;6097200;23;20045;-95
2022/11/15 04:11:38;;;;;;;10.68;2.00;;;;;;;15.40;100.00;96610.63;6113549;23;20045;-95
2022/11/15 04:14:03;;;;;;;8.52;1.35;;;;;;;15.04;100.00;96606.72;6088197;23;20019;-94
2022/11/15 04:16:28;;;;;;;11.07;1.58;;;;;;;19.47;100.00;96566.03;6099286;23;20032;-95
2022/11/15 04:24:22;;;;;;;14.45;2.33;;;;;;;14.31;100.00;96594.47;6097669;23;20064;-95
2022/11/15 04:26:47;;;;;;;10.20;1.88;;;;;;;14.36;100.00;96592.41;6094985;23;20429;-95
2022/11/15 04:31:57;;;;;;;11.80;1.77;;;;;;;14.22;100.00;96592.38;6096471;23;20101;-94
2022/11/15 04:34:27;;;;;;;11.77;2.00;;;;;;;14.32;100.00;96576.03;6071812;23;20018;-95
2022/11/15 04:39:37;;;;;;;12.18;2.03;;;;;;;14.00;100.00;96575.28;6097130;23;20034;-96
2022/11/15 04:42:02;;;;;;;7.78;2.08;;;;;;;17.39;100.00;96551.78;6095356;23;20018;-95
2022/11/15 04:44:36;;;;;;;12.50;2.22;;;;;;;14.42;100.00;96578.94;6072455;23;20022;-94
2022/11/15 04:47:02;;;;;;;9.98;2.15;;;;;;;14.58;100.00;96560.50;6072139;23;20010;-94
2022/11/15 04:49:27;;;;;;;10.48;1.70;;;;;;;14.27;100.00;96561.50;6095785;23;20011;-94
2022/11/15 04:51:53;;;;;;;13.00;2.30;;;;;;;14.90;100.00;96555.09;6071770;23;20014;-95
2022/11/15 04:54:18;;;;;;;10.82;2.22;;;;;;;14.88;100.00;96556.97;6071812;23;20013;-94
2022/11/15 04:56:44;;;;;;;16.48;3.13;;;;;;;14.52;100.00;96553.84;6071569;23;20087;-94
2022/11/15 04:59:10;;;;;;;14.93;2.38;;;;;;;14.49;100.00;96561.06;6097900;23;20030;-94
2022/11/15 05:01:35;;;;;;;8.70;2.08;;;;;;;14.25;100.00;96568.59;6071472;23;20601;-93
2022/11/15 05:04:19;;;;;;;12.73;3.45;;;;;;;13.89;100.00;96554.09;6071044;23;20077;-95
2022/11/15 05:06:45;;;;;;;;;;;;;;;14.18;100.00;96552.38;6068768;23;20006;-95
2022/11/15 05:09:10;;;;;;;10.30;2.30;;;;;;;14.51;100.00;96540.81;6069182;23;19937;-93
2022/11/15 05:11:35;;;;;;;13.30;3.00;;;;;;;13.83;100.00;96544.81;6067594;23;20022;-95
2022/11/15 05:14:01;;;;;;;10.75;2.15;;;;;;;14.24;100.00;96546.78;6091877;23;20194;-94
2022/11/15 05:16:26;;;;;;;11.32;3.03;;;;;;;14.49;100.00;96545.34;6069444;23;20041;-94
2022/11/15 05:18:53;;;;;;;10.73;3.20;;;;;;;14.37;100.00;96533.78;6069797;23;20448;-95
2022/11/15 05:21:19;;;;;;;14.80;3.15;;;;;;;14.31;100.00;96529.75;6070286;23;20034;-94
2022/11/15 05:23:45;;;;;;;13.15;3.35;;;;;;;14.22;100.00;96529.47;6071560;23;20034;-94
2022/11/15 05:26:10;;;;;;;12.48;3.30;;;;;;;14.40;100.00;96522.28;6095304;23;20500;-94
2022/11/15 05:28:36;;;;;;;12.75;3.83;;;;;;;14.19;100.00;96512.13;6071631;23;20014;-94
2022/11/15 05:31:10;;;;;;;16.50;4.45;;;;;;;14.38;100.00;96508.41;6098432;23;20022;-94
2022/11/15 05:33:38;;;;;;;11.57;3.30;;;;;;;13.80;100.00;96509.16;6090288;23;20018;-95
2022/11/15 05:36:38;;;;;;;8.48;3.70;;;;;;;14.49;100.00;96506.00;6091630;23;19999;-94
2022/11/15 05:39:06;;;;;;;11.43;3.33;;;;;;;13.42;100.00;96500.91;6062888;23;20005;-94
2022/11/15 05:41:50;;;;;;;13.30;3.63;;;;;;;13.88;100.00;96502.66;6116734;23;19994;-95
2022/11/15 05:44:19;;;;;;;12.05;3.97;;;;;;;13.56;100.00;96494.88;6092379;23;20026;-95
2022/11/15 05:46:46;;;;;;;14.60;4.05;;;;;;;13.61;100.00;96491.06;6117067;23;20002;-95
2022/11/15 05:49:15;;;;;;;13.43;4.10;;;;;;;13.44;100.00;96501.66;6092547;23;20006;-92
2022/11/15 05:51:43;;;;;;;13.07;4.00;;;;;;;14.06;100.00;96492.84;6116826;23;20003;-95
2022/11/15 05:54:09;;;;;;;10.75;4.30;;;;;;;13.71;100.00;96478.28;6116843;23;20014;-93
2022/11/15 05:56:37;;;;;;;13.70;4.40;;;;;;;14.00;100.00;96476.56;6094172;23;20005;-94
2022/11/15 05:59:03;;;;;;;10.55;3.88;;;;;;;13.44;100.00;96478.06;6095361;23;20090;-93
2022/11/15 06:01:28;;;;;;;12.90;3.92;;;;;;;13.68;100.00;96469.75;6096546;23;20003;-93
2022/11/15 06:03:56;;;;;;;9.32;3.53;;;;;;;13.93;100.00;96464.75;6096256;23;20015;-93
2022/11/15 06:06:24;;;;;;;12.48;3.83;;;;;;;13.77;100.00;96463.97;6097205;23;20024;-94
2022/11/15 06:08:49;;;;;;;15.35;3.95;;;;;;;13.87;100.00;96456.41;6097009;23;19999;-94
2022/11/15 06:11:15;;;;;;;14.20;3.90;;;;;;;13.99;100.00;96453.06;6121694;23;20146;-92
2022/11/15 06:13:41;;;;;;;16.65;4.03;;;;;;;14.13;100.00;96452.22;6097406;23;20002;-93
2022/11/15 06:16:06;;;;;;;12.63;3.60;;;;;;;14.32;100.00;96446.69;6099307;23;20002;-93
2022/11/15 06:18:33;;;;;;;12.05;4.32;;;;;;;13.95;100.00;96433.22;6098782;23;20066;-93
2022/11/15 06:21:17;;;;;;;11.20;3.80;;;;;;;13.92;100.00;96428.16;6122747;23;20025;-94
2022/11/15 06:23:42;;;;;;;12.18;3.30;;;;;;;14.10;100.00;96434.06;6099272;23;19998;-93
2022/11/15 06:26:08;;;;;;;11.98;3.70;;;;;;;14.09;100.00;96427.13;6099042;23;20009;-93
2022/11/15 06:28:37;;;;;;;12.30;3.08;;;;;;;14.18;100.00;96429.19;6099549;23;20017;-94
2022/11/15 06:31:22;;;;;;;8.35;2.85;;;;;;;14.32;100.00;96415.22;6098962;23;20005;-93
2022/11/15 06:33:49;;;;;;;8.27;3.00;;;;;;;14.05;100.00;96416.00;6124428;23;19994;-93
2022/11/15 06:36:16;;;;;;;12.80;3.30;;;;;;;14.32;100.00;96400.34;6099284;23;20014;-94
2022/11/15 06:38:52;;;;;;;11.40;3.03;;;;;;;14.06;100.00;96409.81;6124198;23;20022;-93
2022/11/15 06:41:18;;;;;;;10.38;3.30;;;;;;;14.83;100.00;96401.59;6124739;23;20009;-95
2022/11/15 06:43:43;;;;;;;8.05;3.00;;;;;;;14.15;100.00;96387.44;6076796;23;20026;-94
2022/11/15 06:47:17;;;;;;;9.32;3.00;;;;;;;14.11;100.00;96391.19;6075036;23;20316;-96
2022/11/15 06:49:43;;;;;;;8.18;3.10;;;;;;;14.16;100.00;96397.81;6074948;23;20069;-95
2022/11/15 06:52:12;;;;;;;10.20;3.28;;;;;;;14.14;100.00;96393.59;6100214;23;20030;-96
2022/11/15 06:54:38;;;;;;;8.10;3.20;;;;;;;14.29;100.00;96386.59;6082710;23;20014;-96
2022/11/15 06:57:04;;;;;;;8.13;3.00;;;;;;;14.31;100.00;96375.06;6097035;23;20069;-96
2022/11/15 06:59:31;;;;;;;8.63;3.35;;;;;;;14.39;100.00;96374.59;6116929;23;19998;-95
2022/11/15 07:01:58;;;;;;;9.93;3.20;;;;;;;14.83;100.00;96372.72;6075990;23;20018;-95
2022/11/15 07:04:24;;;;;;;10.02;3.83;;;;;;;14.23;100.00;96374.69;6075043;23;20030;-96
2022/11/15 07:06:50;;;;;;;15.75;3.45;;;;;;;14.31;100.00;96367.19;6075295;23;20052;-93
2022/11/15 07:09:15;;;;;;;12.93;3.20;;;;;;;14.02;100.00;96373.41;6100761;23;20014;-93
2022/11/15 07:11:40;;;;;;;17.08;4.18;;;;;;;14.47;100.00;96361.00;6089087;23;20019;-91
2022/11/15 07:14:06;;;;;;;44.13;6.50;;;;;;;14.89;100.00;96353.13;6114530;23;20034;-92
2022/11/15 07:16:31;;;;;;;92.93;8.43;;;;;;;14.41;100.00;96361.38;6098950;23;20089;-92
2022/11/15 07:18:57;;;;;;;65.05;6.97;;;;;;;14.17;100.00;96351.50;6069884;23;20010;-93
2022/11/15 07:21:23;;;;;;;82.10;9.00;;;;;;;14.10;100.00;96350.22;6095856;23;20117;-94
2022/11/15 07:23:50;;;;;;;102.30;8.55;;;;;;;14.85;100.00;96339.38;6070015;23;20025;-95
2022/11/15 07:26:15;;;;;;;63.20;6.82;;;;;;;15.05;100.00;96334.59;6096966;23;20046;-96
2022/11/15 07:28:41;;;;;;;18.48;4.78;;;;;;;14.60;100.00;96333.06;6066667;23;20038;-96
2022/11/15 07:31:08;;;;;;;10.45;3.63;;;;;;;14.82;100.00;96329.06;6091983;23;20088;-96
2022/11/15 07:33:34;;;;;;;17.65;4.20;;;;;;;14.66;100.00;96327.44;6067740;23;20014;-96
2022/11/15 07:36:03;;;;;;;10.30;3.65;;;;;;;14.59;100.00;96320.03;6068302;23;20050;-95
2022/11/15 07:38:29;;;;;;;11.43;4.10;;;;;;;14.58;100.00;96328.84;6091570;23;20413;-95
2022/11/15 07:40:57;;;;;;;20.63;4.82;;;;;;;14.25;100.00;96315.16;6064320;23;20022;-93
2022/11/15 07:43:22;;;;;;;14.10;4.43;;;;;;;15.15;100.00;96319.91;6067756;23;20787;-94
2022/11/15 07:45:48;;;;;;;11.13;4.07;;;;;;;14.56;100.00;96312.34;6093375;23;20010;-93
2022/11/15 07:48:13;;;;;;;12.80;4.25;;;;;;;14.50;100.00;96317.06;6089330;23;20029;-94
2022/11/15 07:50:42;;;;;;;11.23;4.03;;;;;;;14.94;100.00;96314.31;6065895;23;20014;-94
2022/11/15 07:53:09;;;;;;;9.40;4.18;;;;;;;14.51;100.00;96331.84;6065829;23;20109;-95
2022/11/15 07:55:34;;;;;;;10.75;4.38;;;;;;;14.68;100.00;96317.69;6065223;23;20081;-92
2022/11/15 07:58:05;;;;;;;12.35;4.22;;;;;;;15.06;100.00;96308.25;6090800;23;20018;-96
2022/11/15 08:00:31;;;;;;;10.60;4.18;;;;;;;14.30;100.00;96307.84;6091266;23;20009;-96
2022/11/15 08:03:07;;;;;;;10.68;4.50;;;;;;;15.05;100.00;96308.34;6088729;23;20014;-96
2022/11/15 08:05:33;;;;;;;12.57;4.28;;;;;;;15.08;100.00;96305.50;6065525;23;20089;-95
2022/11/15 08:07:58;;;;;;;12.38;4.53;;;;;;;14.95;100.00;96302.88;6088790;23;20011;-94
2022/11/15 08:10:25;;;;;;;11.65;5.05;;;;;;;14.36;100.00;96301.34;6062551;23;20017;-96
2022/11/15 08:13:16;;;;;;;14.02;5.50;;;;;;;14.79;100.00;96308.28;6087408;23;20045;-95
2022/11/15 08:15:43;;;;;;;14.05;5.90;;;;;;;14.77;100.00;96294.44;6068820;23;20010;-95
2022/11/15 08:18:14;;;;;;;15.07;5.55;;;;;;;14.53;100.00;96281.94;6068844;23;20033;-94
2022/11/15 08:20:40;;;;;;;12.85;4.85;;;;;;;13.93;100.00;96304.06;6093974;23;20085;-95
2022/11/15 08:23:07;;;;;;;14.20;5.75;;;;;;;14.82;100.00;96289.69;6066914;23;20010;-95
2022/11/15 08:25:34;;;;;;;12.45;5.88;;;;;;;14.92;100.00;96268.94;6083918;23;20030;-95
2022/11/15 08:28:03;;;;;;;11.25;4.97;;;;;;;14.33;100.00;96291.94;6039785;23;20620;-96
2022/11/15 08:30:30;;;;;;;13.05;5.07;;;;;;;14.73;100.00;96290.31;6036164;23;20456;-96
2022/11/15 08:32:57;;;;;;;13.38;4.53;;;;;;;14.79;100.00;96288.09;6040136;23;20015;-96
2022/11/15 08:35:24;;;;;;;12.63;4.35;;;;;;;14.24;100.00;96281.19;6044484;23;20002;-96
2022/11/15 08:37:49;;;;;;;9.90;4.28;;;;;;;14.48;100.00;96290.09;6062333;23;20006;-96
2022/11/15 08:40:15;;;;;;;8.68;3.70;;;;;;;14.59;100.00;96273.66;6077964;23;20070;-96
2022/11/15 08:42:41;;;;;;;10.82;3.67;;;;;;;14.62;100.00;96270.84;6041999;23;20017;-95
2022/11/15 08:45:08;;;;;;;10.07;4.22;;;;;;;15.73;100.00;96257.31;6042318;23;20432;-96
2022/11/15 08:47:33;;;;;;;8.23;3.47;;;;;;;16.90;100.00;96234.91;6055934;23;19994;-96
2022/11/15 08:49:59;;;;;;;9.43;4.07;;;;;;;14.24;100.00;96265.47;6063720;23;20007;-95
2022/11/15 08:52:25;;;;;;;12.00;4.32;;;;;;;14.00;100.00;96261.66;6042543;23;20428;-94
2022/11/15 08:54:50;;;;;;;12.20;4.03;;;;;;;14.10;100.00;96250.63;6066771;23;20013;-96
2022/11/15 08:57:16;;;;;;;14.95;4.50;;;;;;;14.42;100.00;96252.91;6064735;23;20107;-96
2022/11/15 09:02:23;;;;;;;11.02;4.20;;;;;;;14.21;100.00;96228.94;6146620;23;20025;-93
2022/11/15 09:04:49;;;;;;;11.45;4.68;;;;;;;14.71;100.00;96237.97;6122398;23;20594;-94
2022/11/15 09:07:17;;;;;;;9.80;4.07;;;;;;;14.70;100.00;96235.41;6121967;23;20014;-96
2022/11/15 09:09:43;;;;;;;9.25;3.78;;;;;;;14.23;100.00;96221.81;6148897;23;20024;-93
2022/11/15 09:12:08;;;;;;;13.73;3.83;;;;;;;14.01;100.00;96228.44;6121407;23;20017;-93
2022/11/15 09:14:35;;;;;;;11.02;3.58;;;;;;;14.77;100.00;96218.34;6122738;23;20100;-95
2022/11/15 09:17:01;;;;;;;10.25;3.83;;;;;;;14.51;100.00;96210.38;6148484;23;20005;-94
2022/11/15 09:19:27;;;;;;;11.50;4.47;;;;;;;14.90;100.00;96211.31;6123087;23;20008;-94
2022/11/15 09:21:53;;;;;;;12.68;3.92;;;;;;;14.92;100.00;96204.19;6124289;23;20097;-96
2022/11/15 09:24:18;;;;;;;11.02;3.70;;;;;;;14.66;100.00;96201.50;6123713;23;20706;-94
2022/11/15 09:26:44;;;;;;;11.80;3.88;;;;;;;14.39;100.00;96205.94;6124746;23;20013;-93
2022/11/15 09:29:10;;;;;;;10.00;3.35;;;;;;;14.34;100.00;96193.97;6123077;23;20459;-93
2022/11/15 09:31:35;;;;;;;8.73;3.40;;;;;;;14.64;100.00;96195.53;6123104;23;20081;-94
2022/11/15 09:34:00;;;;;;;8.13;3.15;;;;;;;14.64;100.00;96185.06;6151511;23;20001;-96
2022/11/15 09:36:33;;;;;;;8.55;3.00;;;;;;;14.90;100.00;96182.44;6129036;23;20010;-94
2022/11/15 09:38:59;;;;;;;8.45;3.17;;;;;;;14.82;100.00;96176.88;6126530;23;20084;-95
2022/11/15 09:41:25;;;;;;;10.05;3.47;;;;;;;14.66;100.00;96183.16;6131401;23;20725;-96
2022/11/15 09:44:14;;;;;;;8.55;2.85;;;;;;;14.54;100.00;96172.63;6135063;23;20112;-95
2022/11/15 09:47:05;;;;;;;9.48;2.90;;;;;;;14.80;100.00;96163.03;6160424;23;20002;-95
2022/11/15 09:49:31;;;;;;;8.52;2.90;;;;;;;14.58;100.00;96159.19;6153563;23;20014;-94
2022/11/15 09:51:57;;;;;;;10.10;3.00;;;;;;;14.91;100.00;96149.19;6132584;23;20096;-93
2022/11/15 09:54:34;;;;;;;8.02;2.60;;;;;;;14.64;100.00;96142.22;6159263;23;20001;-95
2022/11/15 09:57:23;;;;;;;9.10;2.63;;;;;;;14.60;100.00;96140.72;6135188;23;20022;-95
2022/11/15 10:00:23;;;;;;;9.07;2.25;;;;;;;14.66;100.00;96135.09;6134525;23;20018;-94
2022/11/15 10:03:14;;;;;;;11.15;2.55;;;;;;;14.56;100.00;96137.47;6131972;23;20017;-91
2022/11/15 10:05:46;;;;;;;7.75;2.38;;;;;;;14.40;100.00;96129.78;6145271;23;20013;-94
2022/11/15 10:08:39;;;;;;;7.95;2.53;;;;;;;14.55;100.00;96122.69;6148980;23;20009;-94
2022/11/15 10:11:11;;;;;;;10.20;3.30;;;;;;;14.56;100.00;96120.88;6137875;23;20025;-94
2022/11/15 10:13:43;;;;;;;9.13;2.75;;;;;;;15.00;100.00;96120.53;6131973;23;20009;-94
2022/11/15 10:16:14;;;;;;;7.95;2.78;;;;;;;14.83;100.00;96116.41;6133730;23;20014;-95
2022/11/15 10:18:54;;;;;;;7.18;2.33;;;;;;;18.19;100.00;96093.97;6162067;23;20053;-95
2022/11/15 10:21:32;;;;;;;7.97;2.78;;;;;;;14.97;100.00;96091.00;6174066;23;20589;-95
2022/11/15 10:23:58;;;;;;;7.47;2.50;;;;;;;14.91;100.00;96087.03;6126583;23;20069;-94
2022/11/15 10:26:24;;;;;;;10.00;3.30;;;;;;;15.06;100.00;96073.78;6137712;23;20017;-95
2022/11/15 10:28:50;;;;;;;8.55;3.03;;;;;;;14.92;100.00;96077.38;6155156;23;20005;-96
2022/11/15 10:31:25;;;;;;;7.57;3.03;;;;;;;15.37;100.00;96069.81;6128929;23;20113;-96
2022/11/15 10:33:51;;;;;;;10.90;2.80;;;;;;;15.05;100.00;96067.69;6128835;23;20217;-94
2022/11/15 10:36:22;;;;;;;7.10;2.40;;;;;;;14.71;100.00;96059.56;6128223;23;20466;-94
2022/11/15 10:38:48;;;;;;;8.65;2.70;;;;;;;15.21;100.00;96054.31;6155313;23;20288;-92
2022/11/15 10:41:15;;;;;;;8.10;2.50;;;;;;;15.28;100.00;96049.47;6124810;23;20013;-94
2022/11/15 10:43:41;;;;;;;6.53;1.77;;;;;;;14.95;100.00;96033.41;6151680;23;20033;-95
2022/11/15 10:46:21;;;;;;;6.70;1.88;;;;;;;14.81;100.00;96029.13;6127627;23;20013;-93
2022/11/15 10:48:47;;;;;;;6.93;2.10;;;;;;;15.13;100.00;96030.44;6127742;23;20076;-95
2022/11/15 10:51:29;;;;;;;7.88;1.88;;;;;;;14.70;100.00;96160.19;6126560;23;20045;-95
2022/11/15 10:53:59;;;;;;;5.80;1.88;;;;;;;14.73;100.00;97303.97;6134908;23;19989;-95
2022/11/15 10:56:26;;;;;;;7.55;2.00;;;;;;;13.70;100.00;97507.88;6151731;23;20028;-93
2022/11/15 10:58:57;;;;;;;7.65;1.90;;;;;;;14.26;100.00;97562.28;6137157;23;20153;-94
2022/11/15 11:01:25;;;;;;;6.35;1.90;;;;;;;13.82;100.00;97161.50;6153515;23;20047;-94
2022/11/15 11:04:06;;;;;;;5.85;1.83;;;;;;;25.50;100.00;97214.13;6129831;23;20092;-92
2022/11/15 11:06:56;;;;;;;6.85;1.83;;;;;;;15.09;100.00;96704.44;6151610;23;20017;-96
2022/11/15 11:09:35;;;;;;;7.90;2.03;;;;;;;13.87;100.00;96789.16;6142892;23;20014;-94
2022/11/15 11:12:02;;;;;;;5.20;1.70;;;;;;;13.71;100.00;96831.03;6130986;23;20013;-93
2022/11/15 11:14:33;;;;;;;6.60;1.88;;;;;;;13.91;100.00;96835.25;6129372;23;20037;-93
2022/11/15 11:17:04;;;;;;;5.22;1.63;;;;;;;13.80;100.00;96834.00;6126930;23;20017;-95
2022/11/15 11:19:45;;;;;;;5.28;1.50;;;;;;;14.10;100.00;96814.13;6127867;23;20017;-94
2022/11/15 11:22:31;;;;;;;6.03;1.85;;;;;;;14.03;100.00;96797.03;6126308;23;20127;-94
2022/11/15 11:25:10;;;;;;;6.65;1.85;;;;;;;14.21;100.00;96789.94;6126669;23;20064;-95
2022/11/15 11:27:50;;;;;;;6.80;2.08;;;;;;;14.19;100.00;96794.44;6154710;23;20015;-95
2022/11/15 11:30:31;;;;;;;6.40;1.88;;;;;;;13.87;100.00;96778.69;6151509;23;20052;-95
2022/11/15 11:33:06;;;;;;;7.90;1.90;;;;;;;13.86;100.00;96780.44;6154575;23;20529;-93
2022/11/15 11:36:12;;;;;;;6.45;2.17;;;;;;;14.24;100.00;96813.38;6127654;23;20134;-94
2022/11/15 11:38:41;;;;;;;6.75;1.63;;;;;;;13.87;100.00;96810.13;6011449;23;20035;-95
2022/11/15 11:41:09;;;;;;;5.38;1.95;;;;;;;13.98;100.00;96807.78;6034734;23;20019;-95
2022/11/15 11:43:40;;;;;;;8.68;2.13;;;;;;;14.21;100.00;96809.16;6034150;23;20441;-94
2022/11/15 11:46:48;;;;;;;6.57;2.00;;;;;;;14.12;100.00;96814.88;6033869;23;20159;-93
2022/11/15 11:49:48;;;;;;;8.98;2.20;;;;;;;14.10;100.00;96820.22;6010405;23;20089;-95
2022/11/15 11:52:26;;;;;;;8.05;2.50;;;;;;;14.34;100.00;96825.88;6020094;23;20023;-95
2022/11/15 11:55:17;;;;;;;7.88;2.80;;;;;;;14.13;100.00;96812.19;6012659;23;20037;-95